Time;durP1;ratioP1;P1;durP2;ratioP2;P2;SDS_P1;SDS_P2;PMS_P1;PMS_P2;Temp;Humidity;BMP_temperature;BMP_pressure;BME280_temperature;BME280_humidity;BME280_pressure;Samples;Min_cycle;Max_cycle;Signal;HPM_P1;HPM_P2
2022/05/04 00:01:08;;;;;;;;;6.50;6.00;;;;;;;;4984868;28;45335;-77
2022/05/04 00:03:37;;;;;;;;;6.25;4.75;;;;;;;;4996792;28;45384;-77
2022/05/04 00:06:02;;;;;;;;;7.75;7.75;;;;;;;;4995899;28;45392;-77
2022/05/04 00:08:27;;;;;;;;;6.50;6.25;;;;;;;;4996080;28;45196;-76
2022/05/04 00:10:53;;;;;;;;;6.00;6.00;;;;;;;;4996030;28;45514;-76
2022/05/04 00:13:18;;;;;;;;;6.00;6.00;;;;;;;;4996413;28;47371;-77
2022/05/04 00:15:43;;;;;;;;;6.25;6.25;;;;;;;;4996297;28;45492;-77
2022/05/04 00:18:08;;;;;;;;;10.25;8.50;;;;;;;;4989375;28;45279;-77
2022/05/04 00:20:34;;;;;;;;;7.50;7.50;;;;;;;;4984688;28;45446;-75
2022/05/04 00:22:59;;;;;;;;;7.00;6.25;;;;;;;;4982323;28;46335;-77
2022/05/04 00:25:24;;;;;;;;;7.50;7.00;;;;;;;;4995496;28;45523;-76
2022/05/04 00:27:50;;;;;;;;;8.00;6.25;;;;;;;;4984207;28;45385;-77
2022/05/04 00:30:15;;;;;;;;;5.75;5.75;;;;;;;;4984458;28;45405;-77
2022/05/04 00:32:41;;;;;;;;;7.00;7.00;;;;;;;;4984146;28;46609;-76
2022/05/04 00:35:07;;;;;;;;;9.00;8.75;;;;;;;;4982415;28;46609;-77
2022/05/04 00:37:33;;;;;;;;;7.50;5.00;;;;;;;;4979693;28;45664;-77
2022/05/04 00:39:58;;;;;;;;;8.50;8.50;;;;;;;;4994688;28;45738;-76
2022/05/04 00:42:23;;;;;;;;;9.25;6.25;;;;;;;;4981994;28;48660;-77
2022/05/04 00:44:49;;;;;;;;;9.50;7.75;;;;;;;;4988538;28;45368;-77
2022/05/04 00:47:15;;;;;;;;;8.75;8.00;;;;;;;;4995482;28;45559;-77
2022/05/04 00:49:41;;;;;;;;;6.25;6.25;;;;;;;;4995739;28;45656;-76
2022/05/04 00:52:08;;;;;;;;;7.00;7.00;;;;;;;;4996198;28;45401;-76
2022/05/04 00:54:34;;;;;;;;;11.50;7.00;;;;;;;;4994760;28;45529;-77
2022/05/04 00:57:00;;;;;;;;;5.50;5.50;;;;;;;;4990030;28;45509;-77
2022/05/04 00:59:26;;;;;;;;;5.75;5.75;;;;;;;;4990054;28;45682;-77
2022/05/04 01:01:52;;;;;;;;;10.75;8.00;;;;;;;;4995015;28;45356;-77
2022/05/04 01:04:18;;;;;;;;;6.50;6.50;;;;;;;;4979504;28;45678;-77
2022/05/04 01:06:43;;;;;;;;;5.25;5.00;;;;;;;;4995038;28;45390;-75
2022/05/04 01:09:09;;;;;;;;;7.00;7.00;;;;;;;;4987762;28;45309;-77
2022/05/04 01:11:34;;;;;;;;;7.25;5.75;;;;;;;;4983894;28;45357;-77
2022/05/04 01:13:59;;;;;;;;;6.75;6.75;;;;;;;;4981309;28;45600;-77
2022/05/04 01:16:25;;;;;;;;;11.25;7.25;;;;;;;;4979454;28;45282;-77
2022/05/04 01:18:50;;;;;;;;;7.00;7.00;;;;;;;;4983519;28;45227;-76
2022/05/04 01:21:15;;;;;;;;;8.50;7.25;;;;;;;;4984676;28;46584;-77
2022/05/04 01:23:41;;;;;;;;;9.00;7.25;;;;;;;;5003071;28;45306;-77
2022/05/04 01:26:07;;;;;;;;;7.25;6.00;;;;;;;;4995011;28;45479;-76
2022/05/04 01:28:32;;;;;;;;;7.25;7.25;;;;;;;;4994722;28;45440;-76
2022/05/04 01:30:57;;;;;;;;;7.50;7.50;;;;;;;;4981120;28;46915;-77
2022/05/04 01:33:22;;;;;;;;;11.00;7.25;;;;;;;;4986854;28;45725;-76
2022/05/04 01:35:48;;;;;;;;;6.00;5.50;;;;;;;;4998396;28;45301;-76
2022/05/04 01:38:13;;;;;;;;;5.50;5.50;;;;;;;;4982944;28;45411;-77
2022/05/04 01:40:38;;;;;;;;;8.50;7.00;;;;;;;;4993976;28;45456;-76
2022/05/04 01:43:03;;;;;;;;;9.50;6.00;;;;;;;;4998081;28;45442;-76
2022/05/04 01:45:28;;;;;;;;;6.50;6.50;;;;;;;;4995116;28;45528;-76
2022/05/04 01:47:54;;;;;;;;;8.00;7.25;;;;;;;;4995128;28;45228;-76
2022/05/04 01:50:19;;;;;;;;;5.00;5.00;;;;;;;;4994633;28;47820;-76
2022/05/04 01:52:44;;;;;;;;;5.50;5.50;;;;;;;;4976963;28;45609;-76
2022/05/04 01:55:10;;;;;;;;;5.75;5.75;;;;;;;;4978812;28;45285;-76
2022/05/04 01:57:36;;;;;;;;;9.00;8.00;;;;;;;;4983850;28;45541;-76
2022/05/04 02:00:01;;;;;;;;;6.50;6.50;;;;;;;;4988433;28;45641;-76
2022/05/04 02:02:27;;;;;;;;;7.00;5.50;;;;;;;;4993132;28;45338;-77
2022/05/04 02:04:52;;;;;;;;;5.75;5.75;;;;;;;;4978517;28;45766;-78
2022/05/04 02:07:18;;;;;;;;;5.00;5.00;;;;;;;;4979036;28;45310;-76
2022/05/04 02:09:43;;;;;;;;;8.50;7.50;;;;;;;;4984813;28;48617;-76
2022/05/04 02:12:08;;;;;;;;;6.00;6.00;;;;;;;;4983189;28;45325;-77
2022/05/04 02:14:34;;;;;;;;;6.50;6.50;;;;;;;;4983581;28;45441;-77
2022/05/04 02:16:59;;;;;;;;;7.50;7.25;;;;;;;;5006183;28;45480;-77
2022/05/04 02:19:24;;;;;;;;;8.25;7.00;;;;;;;;4994021;28;46074;-77
2022/05/04 02:21:50;;;;;;;;;6.00;5.75;;;;;;;;4982727;28;45467;-77
2022/05/04 02:24:15;;;;;;;;;6.25;6.25;;;;;;;;4991177;28;45273;-77
2022/05/04 02:26:40;;;;;;;;;6.25;6.25;;;;;;;;4993848;28;45394;-75
2022/05/04 02:29:05;;;;;;;;;7.25;6.50;;;;;;;;4994572;28;46575;-75
2022/05/04 02:31:30;;;;;;;;;6.00;6.00;;;;;;;;4978221;28;45285;-75
2022/05/04 02:33:56;;;;;;;;;9.25;7.75;;;;;;;;4994864;28;45432;-76
2022/05/04 02:39:05;;;;;;;;;6.25;6.25;;;;;;;;4992054;28;45548;-75
2022/05/04 02:41:30;;;;;;;;;6.00;6.00;;;;;;;;4993500;28;45551;-75
2022/05/04 02:43:55;;;;;;;;;7.75;6.00;;;;;;;;4994373;28;45534;-75
2022/05/04 02:46:22;;;;;;;;;7.00;7.00;;;;;;;;4994668;28;45291;-75
2022/05/04 02:48:48;;;;;;;;;6.00;5.25;;;;;;;;4993271;28;45402;-78
2022/05/04 02:51:13;;;;;;;;;8.00;5.75;;;;;;;;4993237;28;45349;-74
2022/05/04 02:53:39;;;;;;;;;9.00;7.00;;;;;;;;4992468;28;45456;-74
2022/05/04 02:56:08;;;;;;;;;7.50;7.25;;;;;;;;4991736;28;45473;-74
2022/05/04 02:58:33;;;;;;;;;6.00;6.00;;;;;;;;5003132;28;46080;-75
2022/05/04 03:02:26;;;;;;;;;7.25;6.00;;;;;;;;4994587;28;45402;-75
2022/05/04 03:03:54;;;;;;;;;5.25;5.25;;;;;;;;4989988;28;45501;-79
2022/05/04 03:06:19;;;;;;;;;5.00;5.00;;;;;;;;4992223;28;45641;-79
2022/05/04 03:08:44;;;;;;;;;7.00;5.75;;;;;;;;4993846;28;46487;-79
2022/05/04 03:13:55;;;;;;;;;7.50;6.50;;;;;;;;4991742;28;45328;-77
2022/05/04 03:16:21;;;;;;;;;7.50;7.00;;;;;;;;4998667;28;45466;-77
2022/05/04 03:18:49;;;;;;;;;5.25;5.25;;;;;;;;4991146;28;46724;-79
2022/05/04 03:21:18;;;;;;;;;8.00;7.00;;;;;;;;4999265;28;45493;-78
2022/05/04 03:23:54;;;;;;;;;8.25;8.25;;;;;;;;4998106;28;45459;-78
2022/05/04 03:26:48;;;;;;;;;7.00;6.25;;;;;;;;4994048;28;45627;-78
2022/05/04 03:29:14;;;;;;;;;5.25;5.25;;;;;;;;4995315;28;45576;-78
2022/05/04 03:31:39;;;;;;;;;8.50;6.00;;;;;;;;4996996;28;45444;-78
2022/05/04 03:34:05;;;;;;;;;6.25;6.25;;;;;;;;4983841;28;45452;-78
2022/05/04 03:36:30;;;;;;;;;6.25;6.25;;;;;;;;4985766;28;45484;-78
2022/05/04 03:38:56;;;;;;;;;7.50;7.00;;;;;;;;4985697;28;46553;-78
2022/05/04 03:41:21;;;;;;;;;6.50;6.50;;;;;;;;4985799;28;45426;-78
2022/05/04 03:43:46;;;;;;;;;6.00;6.00;;;;;;;;4997099;28;45460;-78
2022/05/04 03:46:19;;;;;;;;;6.75;5.75;;;;;;;;4997380;28;45554;-78
2022/05/04 03:48:45;;;;;;;;;9.00;7.50;;;;;;;;4985373;28;45461;-78
2022/05/04 03:51:11;;;;;;;;;8.00;8.00;;;;;;;;4992376;28;45444;-78
2022/05/04 03:53:36;;;;;;;;;5.75;5.00;;;;;;;;4996294;28;45599;-77
2022/05/04 03:56:03;;;;;;;;;5.00;5.00;;;;;;;;4996504;28;45361;-74
2022/05/04 03:58:28;;;;;;;;;8.00;6.50;;;;;;;;5005078;28;48009;-75
2022/05/04 04:00:54;;;;;;;;;6.25;6.25;;;;;;;;4996466;28;45322;-75
2022/05/04 04:03:19;;;;;;;;;7.75;7.00;;;;;;;;4987977;28;45266;-75
2022/05/04 04:05:44;;;;;;;;;6.75;6.75;;;;;;;;4999799;28;45461;-77
2022/05/04 04:08:09;;;;;;;;;7.75;7.25;;;;;;;;4996710;28;46335;-77
2022/05/04 04:10:34;;;;;;;;;6.00;6.00;;;;;;;;4996375;28;45367;-77
2022/05/04 04:13:00;;;;;;;;;8.00;6.00;;;;;;;;4997276;28;45345;-78
2022/05/04 04:15:25;;;;;;;;;9.25;7.50;;;;;;;;4991482;28;45347;-77
2022/05/04 04:17:54;;;;;;;;;7.75;7.00;;;;;;;;4996029;28;46352;-78
2022/05/04 04:23:04;;;;;;;;;8.75;6.25;;;;;;;;4996307;28;45503;-78
2022/05/04 04:25:29;;;;;;;;;5.00;5.00;;;;;;;;4996492;28;45421;-77
2022/05/04 04:27:54;;;;;;;;;7.75;6.25;;;;;;;;4993626;28;46312;-77
2022/05/04 04:30:19;;;;;;;;;5.50;5.50;;;;;;;;4987547;28;45509;-77
2022/05/04 04:32:45;;;;;;;;;7.00;7.00;;;;;;;;4989310;28;45447;-77
2022/05/04 04:35:10;;;;;;;;;6.00;6.00;;;;;;;;4996610;28;45432;-77
2022/05/04 04:37:35;;;;;;;;;8.25;7.25;;;;;;;;4995963;28;47116;-77
2022/05/04 04:40:00;;;;;;;;;9.00;8.00;;;;;;;;4981560;28;45537;-77
2022/05/04 04:42:26;;;;;;;;;6.00;6.00;;;;;;;;4987188;28;45412;-78
2022/05/04 04:44:51;;;;;;;;;6.00;6.00;;;;;;;;4991286;28;45455;-76
2022/05/04 04:47:16;;;;;;;;;5.75;5.75;;;;;;;;4984227;28;45583;-76
2022/05/04 04:49:41;;;;;;;;;7.00;7.00;;;;;;;;4979851;28;45301;-76
2022/05/04 04:52:07;;;;;;;;;7.00;7.00;;;;;;;;4997168;28;45495;-76
2022/05/04 04:54:32;;;;;;;;;7.75;6.00;;;;;;;;4991803;28;45436;-76
2022/05/04 04:56:57;;;;;;;;;6.75;6.75;;;;;;;;4996055;28;45627;-75
2022/05/04 04:59:22;;;;;;;;;5.25;5.25;;;;;;;;4994453;28;46104;-76
2022/05/04 05:01:48;;;;;;;;;6.00;6.00;;;;;;;;4980505;28;45231;-76
2022/05/04 05:04:13;;;;;;;;;7.50;6.25;;;;;;;;4996283;28;45591;-77
2022/05/04 05:06:38;;;;;;;;;6.00;6.00;;;;;;;;4989917;28;45576;-77
2022/05/04 05:09:03;;;;;;;;;7.75;7.75;;;;;;;;4989681;28;45338;-77
2022/05/04 05:11:29;;;;;;;;;7.00;7.00;;;;;;;;4984531;28;45426;-77
2022/05/04 05:16:38;;;;;;;;;6.00;6.00;;;;;;;;4994312;28;45469;-77
2022/05/04 05:19:03;;;;;;;;;7.50;6.25;;;;;;;;4995968;28;45405;-77
2022/05/04 05:21:29;;;;;;;;;6.50;6.00;;;;;;;;4995414;28;45391;-77
2022/05/04 05:23:54;;;;;;;;;6.75;6.75;;;;;;;;4995009;28;45513;-77
2022/05/04 05:26:19;;;;;;;;;7.00;4.75;;;;;;;;4994694;28;45691;-77
2022/05/04 05:28:44;;;;;;;;;8.00;6.50;;;;;;;;4994668;28;45448;-77
2022/05/04 05:31:09;;;;;;;;;6.50;6.50;;;;;;;;4989562;28;45166;-77
2022/05/04 05:33:35;;;;;;;;;7.25;7.25;;;;;;;;4998546;28;45470;-79
2022/05/04 05:36:01;;;;;;;;;6.50;6.50;;;;;;;;4989389;28;45644;-80
2022/05/04 05:38:27;;;;;;;;;5.25;5.25;;;;;;;;4985077;28;45446;-79
2022/05/04 05:40:52;;;;;;;;;8.00;6.00;;;;;;;;4992621;28;45356;-79
2022/05/04 05:43:17;;;;;;;;;6.00;6.00;;;;;;;;5003214;28;45425;-79
2022/05/04 05:45:42;;;;;;;;;5.00;5.00;;;;;;;;4995306;28;45582;-79
2022/05/04 05:48:08;;;;;;;;;7.00;6.00;;;;;;;;4989128;28;48935;-79
2022/05/04 05:50:34;;;;;;;;;5.25;5.25;;;;;;;;4985790;28;45605;-79
2022/05/04 05:52:59;;;;;;;;;7.25;7.00;;;;;;;;4995121;28;45281;-79
2022/05/04 05:55:24;;;;;;;;;6.75;6.75;;;;;;;;4979003;28;45364;-79
2022/05/04 05:57:49;;;;;;;;;7.00;7.00;;;;;;;;4987321;28;45446;-79
2022/05/04 06:00:15;;;;;;;;;6.00;6.00;;;;;;;;4995028;28;45620;-82
2022/05/04 06:02:40;;;;;;;;;7.25;5.75;;;;;;;;4998596;28;45548;-80
2022/05/04 06:05:06;;;;;;;;;8.75;7.50;;;;;;;;4991804;28;45584;-80
2022/05/04 06:07:31;;;;;;;;;7.00;7.00;;;;;;;;4977617;28;45460;-79
2022/05/04 06:09:56;;;;;;;;;6.75;6.75;;;;;;;;4982572;28;45429;-79
2022/05/04 06:12:21;;;;;;;;;6.50;6.50;;;;;;;;4992847;28;45330;-79
2022/05/04 06:14:47;;;;;;;;;7.75;6.00;;;;;;;;4994487;28;45382;-78
2022/05/04 06:17:12;;;;;;;;;6.50;5.50;;;;;;;;4994861;28;45499;-79
2022/05/04 06:19:38;;;;;;;;;7.50;7.00;;;;;;;;4979063;28;45410;-78
2022/05/04 06:22:03;;;;;;;;;7.00;6.50;;;;;;;;4995240;28;45504;-77
2022/05/04 06:24:28;;;;;;;;;6.75;6.75;;;;;;;;4985253;28;45305;-78
2022/05/04 06:26:54;;;;;;;;;7.00;7.00;;;;;;;;4988084;28;45515;-77
2022/05/04 06:29:19;;;;;;;;;8.75;7.50;;;;;;;;4994600;28;45409;-77
2022/05/04 06:34:28;;;;;;;;;6.25;6.25;;;;;;;;4992538;28;45537;-67
2022/05/04 06:36:53;;;;;;;;;8.25;8.25;;;;;;;;4994758;28;45437;-70
2022/05/04 06:39:18;;;;;;;;;7.25;7.00;;;;;;;;4988245;28;45432;-70
2022/05/04 06:41:43;;;;;;;;;6.50;5.75;;;;;;;;4990024;28;45474;-74
2022/05/04 06:44:09;;;;;;;;;7.50;7.00;;;;;;;;4994649;28;46516;-77
2022/05/04 06:46:41;;;;;;;;;7.00;7.00;;;;;;;;4982413;28;45583;-72
2022/05/04 06:49:07;;;;;;;;;5.50;5.50;;;;;;;;4984202;28;45330;-73
2022/05/04 06:51:33;;;;;;;;;9.00;6.75;;;;;;;;4995926;28;48306;-73
2022/05/04 06:53:58;;;;;;;;;9.00;8.00;;;;;;;;4997040;28;46309;-73
2022/05/04 06:56:23;;;;;;;;;7.00;7.00;;;;;;;;4999733;28;45329;-74
2022/05/04 06:58:49;;;;;;;;;8.00;8.00;;;;;;;;4997484;28;45459;-74
2022/05/04 07:01:14;;;;;;;;;6.75;6.75;;;;;;;;4982674;28;45628;-75
2022/05/04 07:03:39;;;;;;;;;9.50;9.00;;;;;;;;4994497;28;45744;-74
2022/05/04 07:06:05;;;;;;;;;6.50;6.50;;;;;;;;4990913;28;45598;-74
2022/05/04 07:08:31;;;;;;;;;8.00;7.50;;;;;;;;4987567;28;45459;-74
2022/05/04 07:10:56;;;;;;;;;7.25;7.25;;;;;;;;4996870;28;45316;-74
2022/05/04 07:13:21;;;;;;;;;7.25;7.25;;;;;;;;5005272;28;45427;-74
2022/05/04 07:15:47;;;;;;;;;6.75;6.00;;;;;;;;4997316;28;45548;-73
2022/05/04 07:18:12;;;;;;;;;8.00;8.00;;;;;;;;4996802;28;45409;-74
2022/05/04 07:20:37;;;;;;;;;10.00;8.50;;;;;;;;4994461;28;45554;-74
2022/05/04 07:23:02;;;;;;;;;8.00;6.75;;;;;;;;4983498;28;45553;-72
2022/05/04 07:25:27;;;;;;;;;6.25;5.50;;;;;;;;4984725;28;45552;-74
2022/05/04 07:27:53;;;;;;;;;9.25;8.25;;;;;;;;4984988;28;45342;-74
2022/05/04 07:30:18;;;;;;;;;9.75;7.25;;;;;;;;4990073;28;45344;-74
2022/05/04 07:32:44;;;;;;;;;8.50;8.50;;;;;;;;4996408;28;45777;-74
2022/05/04 07:35:09;;;;;;;;;7.00;7.00;;;;;;;;4996297;28;45426;-74
2022/05/04 07:37:35;;;;;;;;;8.00;6.25;;;;;;;;4981401;28;45567;-74
2022/05/04 07:42:44;;;;;;;;;8.75;7.75;;;;;;;;5005770;28;45815;-74
2022/05/04 07:45:11;;;;;;;;;7.50;7.50;;;;;;;;5000717;28;45452;-74
2022/05/04 07:47:36;;;;;;;;;6.00;6.00;;;;;;;;4996105;28;45257;-74
2022/05/04 07:50:06;;;;;;;;;6.25;6.25;;;;;;;;4996184;28;45546;-74
2022/05/04 07:52:32;;;;;;;;;8.00;8.00;;;;;;;;4980764;28;46708;-74
2022/05/04 07:54:57;;;;;;;;;11.50;9.25;;;;;;;;4994005;28;45427;-74
2022/05/04 07:57:23;;;;;;;;;8.75;7.00;;;;;;;;4988038;28;45773;-74
2022/05/04 08:05:17;;;;;;;;;6.75;6.50;;;;;;;;4996289;28;45421;-74
2022/05/04 08:07:42;;;;;;;;;7.25;7.25;;;;;;;;4989263;28;45446;-74
2022/05/04 08:10:08;;;;;;;;;8.25;7.00;;;;;;;;4982674;28;45470;-74
2022/05/04 08:12:33;;;;;;;;;10.00;9.00;;;;;;;;4994355;28;45429;-73
2022/05/04 08:14:58;;;;;;;;;8.50;7.00;;;;;;;;4990902;28;45516;-74
2022/05/04 08:17:24;;;;;;;;;8.25;6.75;;;;;;;;4983684;28;45477;-73
2022/05/04 08:19:49;;;;;;;;;9.00;7.75;;;;;;;;4995075;28;45468;-74
2022/05/04 08:22:14;;;;;;;;;7.00;7.00;;;;;;;;4996778;28;46430;-74
2022/05/04 08:24:40;;;;;;;;;6.25;5.00;;;;;;;;4989893;28;45445;-74
2022/05/04 08:27:05;;;;;;;;;9.25;7.75;;;;;;;;4988653;28;45442;-74
2022/05/04 08:29:30;;;;;;;;;10.00;7.00;;;;;;;;4996730;28;45428;-74
2022/05/04 08:31:58;;;;;;;;;10.00;8.00;;;;;;;;4995160;28;45222;-74
2022/05/04 08:34:23;;;;;;;;;8.25;8.25;;;;;;;;4993085;28;45462;-74
2022/05/04 08:36:49;;;;;;;;;7.50;7.50;;;;;;;;4982598;28;45520;-74
2022/05/04 08:39:14;;;;;;;;;9.00;8.75;;;;;;;;4984170;28;45437;-74
2022/05/04 08:41:41;;;;;;;;;9.00;9.00;;;;;;;;4984475;28;45294;-74
2022/05/04 08:44:08;;;;;;;;;10.50;8.25;;;;;;;;4998489;28;45444;-74
2022/05/04 08:46:35;;;;;;;;;8.75;7.00;;;;;;;;4995765;28;45326;-74
2022/05/04 08:49:02;;;;;;;;;10.00;8.00;;;;;;;;4990373;28;45405;-74
2022/05/04 08:51:28;;;;;;;;;8.75;8.25;;;;;;;;4990403;28;45238;-74
2022/05/04 08:53:53;;;;;;;;;6.75;5.50;;;;;;;;4995308;28;45535;-74
2022/05/04 08:56:18;;;;;;;;;4.25;3.25;;;;;;;;5002879;28;45430;-75
2022/05/04 08:58:44;;;;;;;;;9.75;7.50;;;;;;;;4985985;28;45328;-74
2022/05/04 09:01:09;;;;;;;;;9.50;9.00;;;;;;;;4995196;28;46513;-74
2022/05/04 09:03:34;;;;;;;;;6.75;6.75;;;;;;;;4990539;28;45351;-75
2022/05/04 09:06:00;;;;;;;;;8.00;8.00;;;;;;;;4989807;28;45416;-74
2022/05/04 09:08:25;;;;;;;;;6.75;6.75;;;;;;;;4984774;28;45401;-74
2022/05/04 09:10:50;;;;;;;;;9.50;9.00;;;;;;;;4994988;28;45494;-74
2022/05/04 09:13:19;;;;;;;;;6.00;6.00;;;;;;;;4996246;28;45429;-73
2022/05/04 09:15:44;;;;;;;;;6.25;6.25;;;;;;;;4995504;28;45534;-73
2022/05/04 09:18:15;;;;;;;;;7.00;6.50;;;;;;;;4994576;28;45496;-73
2022/05/04 09:20:45;;;;;;;;;5.75;5.75;;;;;;;;4991905;28;45684;-74
2022/05/04 09:23:22;;;;;;;;;8.50;7.50;;;;;;;;4993483;28;45334;-74
2022/05/04 09:25:49;;;;;;;;;6.50;6.50;;;;;;;;4979744;28;45402;-74
2022/05/04 09:28:15;;;;;;;;;7.00;7.00;;;;;;;;4993570;28;45372;-74
2022/05/04 09:30:50;;;;;;;;;9.25;9.25;;;;;;;;4990292;28;46539;-74
2022/05/04 09:33:22;;;;;;;;;8.00;6.75;;;;;;;;4994950;28;45453;-74
2022/05/04 09:35:47;;;;;;;;;8.00;7.00;;;;;;;;4991699;28;45397;-74
2022/05/04 09:46:39;;;;;;;;;8.50;7.00;;;;;;;;4996981;28;45529;-74
2022/05/04 09:49:12;;;;;;;;;6.50;6.50;;;;;;;;4986242;28;45377;-74
2022/05/04 09:51:38;;;;;;;;;8.75;8.00;;;;;;;;4981124;28;46389;-74
2022/05/04 09:54:18;;;;;;;;;8.25;7.00;;;;;;;;4983459;28;45387;-74
2022/05/04 09:56:50;;;;;;;;;8.75;7.00;;;;;;;;4989047;28;45348;-74
2022/05/04 09:59:16;;;;;;;;;6.25;6.25;;;;;;;;4991035;28;45493;-74
2022/05/04 10:01:42;;;;;;;;;6.25;5.75;;;;;;;;4993312;28;46151;-74
2022/05/04 10:04:08;;;;;;;;;4.25;4.25;;;;;;;;4995120;28;45357;-71
2022/05/04 10:06:33;;;;;;;;;6.25;6.00;;;;;;;;4997131;28;45372;-72
2022/05/04 10:08:59;;;;;;;;;10.00;7.50;;;;;;;;5000577;28;45484;-71
2022/05/04 10:11:25;;;;;;;;;7.00;7.00;;;;;;;;4993655;28;45645;-71
2022/05/04 10:13:53;;;;;;;;;5.25;5.25;;;;;;;;4981437;28;45530;-70
2022/05/04 10:16:18;;;;;;;;;6.25;6.25;;;;;;;;4998522;28;45365;-70
2022/05/04 10:18:45;;;;;;;;;5.50;5.50;;;;;;;;4986227;28;45658;-71
2022/05/04 10:21:15;;;;;;;;;6.50;5.75;;;;;;;;4992380;28;45546;-71
2022/05/04 10:23:46;;;;;;;;;5.25;5.25;;;;;;;;5003164;28;45317;-71
2022/05/04 10:26:12;;;;;;;;;7.25;7.25;;;;;;;;4985188;28;45374;-71
2022/05/04 10:28:41;;;;;;;;;6.25;6.25;;;;;;;;4997008;28;45385;-71
2022/05/04 10:31:12;;;;;;;;;6.00;6.00;;;;;;;;4997765;28;47555;-71
2022/05/04 10:33:38;;;;;;;;;7.00;6.00;;;;;;;;4997089;28;45357;-70
2022/05/04 10:36:16;;;;;;;;;6.75;6.50;;;;;;;;4997232;28;45411;-71
2022/05/04 10:38:42;;;;;;;;;8.25;6.75;;;;;;;;4998773;28;45385;-72
2022/05/04 10:41:09;;;;;;;;;6.00;5.75;;;;;;;;5010604;28;46114;-72
2022/05/04 10:43:41;;;;;;;;;8.00;7.25;;;;;;;;4997333;28;45585;-73
2022/05/04 10:46:16;;;;;;;;;8.00;6.75;;;;;;;;4984360;28;45429;-69
2022/05/04 10:48:45;;;;;;;;;6.50;6.00;;;;;;;;4996664;28;45339;-69
2022/05/04 10:51:12;;;;;;;;;7.75;7.00;;;;;;;;4990795;28;45944;-69
2022/05/04 10:53:37;;;;;;;;;6.25;6.25;;;;;;;;4988284;28;45556;-69
2022/05/04 10:56:07;;;;;;;;;6.25;5.50;;;;;;;;5003853;28;45310;-69
2022/05/04 10:58:41;;;;;;;;;9.00;7.00;;;;;;;;4997721;28;45234;-69
2022/05/04 11:01:09;;;;;;;;;4.75;4.75;;;;;;;;4982686;28;45447;-69
2022/05/04 11:03:35;;;;;;;;;9.75;8.25;;;;;;;;4995488;28;45515;-69
2022/05/04 11:06:21;;;;;;;;;6.00;6.00;;;;;;;;4998407;28;45445;-69
2022/05/04 11:08:48;;;;;;;;;3.00;3.00;;;;;;;;4992085;28;45496;-69
2022/05/04 11:11:13;;;;;;;;;5.50;5.50;;;;;;;;4994563;28;47253;-68
2022/05/04 11:13:42;;;;;;;;;9.75;7.50;;;;;;;;4997145;28;45313;-69
2022/05/04 11:16:08;;;;;;;;;5.00;5.00;;;;;;;;4997467;28;45302;-69
2022/05/04 11:18:33;;;;;;;;;5.75;5.75;;;;;;;;4987584;28;45361;-69
2022/05/04 11:21:00;;;;;;;;;5.50;5.50;;;;;;;;4991913;28;45416;-69
2022/05/04 11:23:25;;;;;;;;;6.75;5.25;;;;;;;;4986098;28;45603;-69
2022/05/04 11:25:51;;;;;;;;;5.25;5.25;;;;;;;;4996081;28;45368;-69
2022/05/04 11:28:22;;;;;;;;;8.25;5.25;;;;;;;;4982256;28;45331;-69
2022/05/04 11:30:47;;;;;;;;;8.75;8.00;;;;;;;;4998492;28;46415;-69
2022/05/04 11:33:13;;;;;;;;;8.75;7.50;;;;;;;;4996642;28;46049;-69
2022/05/04 11:35:38;;;;;;;;;4.25;4.25;;;;;;;;4996383;28;45629;-70
2022/05/04 11:38:03;;;;;;;;;4.25;4.25;;;;;;;;4997181;28;45578;-70
2022/05/04 11:40:29;;;;;;;;;6.00;6.00;;;;;;;;4981366;28;45585;-72
2022/05/04 11:42:54;;;;;;;;;8.25;7.75;;;;;;;;4995510;28;45377;-71
2022/05/04 11:45:20;;;;;;;;;7.25;7.00;;;;;;;;4988499;28;45485;-71
2022/05/04 11:47:45;;;;;;;;;6.75;6.75;;;;;;;;4984023;28;45547;-69
2022/05/04 11:50:11;;;;;;;;;5.50;5.50;;;;;;;;4996485;28;46381;-71
2022/05/04 11:52:37;;;;;;;;;7.00;7.00;;;;;;;;4993115;28;46212;-72
2022/05/04 11:55:03;;;;;;;;;8.50;8.50;;;;;;;;4993431;28;45420;-72
2022/05/04 11:57:28;;;;;;;;;5.00;5.00;;;;;;;;4987584;28;45451;-72
2022/05/04 11:59:53;;;;;;;;;6.75;5.25;;;;;;;;4991096;28;46487;-72
2022/05/04 12:02:19;;;;;;;;;5.75;5.75;;;;;;;;4984500;28;45314;-72
2022/05/04 12:04:47;;;;;;;;;7.00;5.50;;;;;;;;4980625;28;45361;-72
2022/05/04 12:07:12;;;;;;;;;7.25;6.00;;;;;;;;4988158;28;45507;-72
2022/05/04 12:09:37;;;;;;;;;7.75;6.75;;;;;;;;4995999;28;45524;-72
2022/05/04 12:12:03;;;;;;;;;10.50;7.25;;;;;;;;4995629;28;45452;-73
2022/05/04 12:14:28;;;;;;;;;8.50;7.25;;;;;;;;4995052;28;45425;-73
2022/05/04 12:16:54;;;;;;;;;7.75;7.75;;;;;;;;4981578;28;45436;-73
2022/05/04 12:19:19;;;;;;;;;8.50;8.50;;;;;;;;4980780;28;45352;-73
2022/05/04 12:21:44;;;;;;;;;7.50;7.25;;;;;;;;4984831;28;45333;-73
2022/05/04 12:24:12;;;;;;;;;7.00;6.50;;;;;;;;4989074;28;45318;-73
2022/05/04 12:26:38;;;;;;;;;8.00;7.00;;;;;;;;4996033;28;45455;-72
2022/05/04 12:34:31;;;;;;;;;6.00;6.00;;;;;;;;4993853;28;45361;-73
2022/05/04 12:36:59;;;;;;;;;8.50;6.75;;;;;;;;4982381;28;45594;-73
2022/05/04 12:39:25;;;;;;;;;7.50;7.50;;;;;;;;4991990;28;46481;-72
2022/05/04 12:41:53;;;;;;;;;5.75;5.75;;;;;;;;4995158;28;45421;-73
2022/05/04 12:44:18;;;;;;;;;8.00;7.25;;;;;;;;4995584;28;45554;-72
2022/05/04 12:46:53;;;;;;;;;8.00;5.50;;;;;;;;4995543;28;45288;-72
2022/05/04 12:49:22;;;;;;;;;6.50;6.50;;;;;;;;4992345;28;46265;-72
2022/05/04 12:51:47;;;;;;;;;7.25;5.75;;;;;;;;4995674;28;45276;-72
2022/05/04 12:54:14;;;;;;;;;6.00;6.00;;;;;;;;4995194;28;45309;-73
2022/05/04 12:56:46;;;;;;;;;8.25;7.50;;;;;;;;4994247;28;45474;-72
2022/05/04 12:59:12;;;;;;;;;6.50;6.50;;;;;;;;4998857;28;45653;-72
2022/05/04 13:01:37;;;;;;;;;10.00;7.25;;;;;;;;5009319;28;45564;-72
2022/05/04 13:04:03;;;;;;;;;7.00;6.00;;;;;;;;4996087;28;45376;-73
2022/05/04 13:06:28;;;;;;;;;8.00;7.50;;;;;;;;4995387;28;45295;-71
2022/05/04 13:08:53;;;;;;;;;8.25;6.75;;;;;;;;4995128;28;45645;-72
2022/05/04 13:11:20;;;;;;;;;7.00;7.00;;;;;;;;4993106;28;45511;-73
2022/05/04 13:13:46;;;;;;;;;7.25;7.25;;;;;;;;4992271;28;45471;-73
2022/05/04 13:16:11;;;;;;;;;6.75;6.00;;;;;;;;4995668;28;45481;-72
2022/05/04 13:18:40;;;;;;;;;7.25;7.25;;;;;;;;4996675;28;46365;-72
2022/05/04 13:21:05;;;;;;;;;7.75;6.50;;;;;;;;4994589;28;45253;-73
2022/05/04 13:23:30;;;;;;;;;8.00;6.00;;;;;;;;4998083;28;45629;-72
2022/05/04 13:25:56;;;;;;;;;8.75;7.75;;;;;;;;4995325;28;45412;-72
2022/05/04 13:28:22;;;;;;;;;8.00;8.00;;;;;;;;4994307;28;45729;-72
2022/05/04 13:30:47;;;;;;;;;6.25;6.25;;;;;;;;4990727;28;45258;-72
2022/05/04 13:33:12;;;;;;;;;4.50;4.50;;;;;;;;4993124;28;45521;-73
2022/05/04 13:35:38;;;;;;;;;6.25;6.25;;;;;;;;4992649;28;45377;-73
2022/05/04 13:38:04;;;;;;;;;6.75;6.75;;;;;;;;4997115;28;45485;-72
2022/05/04 13:40:29;;;;;;;;;7.50;7.50;;;;;;;;4994882;28;46602;-72
2022/05/04 13:42:54;;;;;;;;;6.00;6.00;;;;;;;;4994972;28;45371;-73
2022/05/04 13:45:20;;;;;;;;;5.25;5.25;;;;;;;;4997194;28;45512;-73
2022/05/04 13:47:45;;;;;;;;;7.00;6.25;;;;;;;;5002215;28;45554;-73
2022/05/04 13:53:14;;;;;;;;;8.00;7.00;;;;;;;;4999012;28;45365;-72
2022/05/04 13:53:14;;;;;;;;;8.00;8.00;;;;;;;;4980383;28;45341;-73
2022/05/04 13:55:50;;;;;;;;;8.50;7.25;;;;;;;;4994062;28;45305;-73
2022/05/04 13:58:16;;;;;;;;;6.75;6.75;;;;;;;;4998937;28;46412;-73
2022/05/04 14:00:42;;;;;;;;;5.50;5.50;;;;;;;;4991798;28;45412;-73
2022/05/04 14:03:07;;;;;;;;;9.50;7.25;;;;;;;;4991497;28;45341;-72
2022/05/04 14:05:33;;;;;;;;;6.25;6.25;;;;;;;;4993165;28;45416;-73
2022/05/04 14:07:58;;;;;;;;;6.00;6.00;;;;;;;;4986952;28;45451;-72
2022/05/04 14:10:23;;;;;;;;;7.00;7.00;;;;;;;;4994593;28;45446;-73
2022/05/04 14:12:48;;;;;;;;;7.50;6.00;;;;;;;;4995022;28;45376;-73
2022/05/04 14:15:13;;;;;;;;;8.25;8.25;;;;;;;;5000063;28;45313;-72
2022/05/04 14:17:39;;;;;;;;;10.00;7.25;;;;;;;;5003400;28;45409;-73
2022/05/04 14:20:05;;;;;;;;;5.00;4.75;;;;;;;;4999921;28;45511;-73
2022/05/04 14:22:31;;;;;;;;;8.00;7.00;;;;;;;;4994407;28;45328;-73
2022/05/04 14:24:56;;;;;;;;;6.00;6.00;;;;;;;;4994172;28;45341;-72
2022/05/04 14:27:21;;;;;;;;;7.00;6.00;;;;;;;;4993761;28;45440;-73
2022/05/04 14:29:46;;;;;;;;;8.00;8.00;;;;;;;;4992795;28;45515;-73
2022/05/04 14:32:11;;;;;;;;;8.75;5.00;;;;;;;;5002348;28;45407;-72
2022/05/04 14:34:37;;;;;;;;;7.25;7.25;;;;;;;;5003293;28;45292;-72
2022/05/04 14:37:02;;;;;;;;;7.00;7.00;;;;;;;;4994740;28;46596;-73
2022/05/04 14:39:28;;;;;;;;;5.75;5.75;;;;;;;;4992736;28;45310;-73
2022/05/04 14:41:53;;;;;;;;;7.00;7.00;;;;;;;;4993940;28;45516;-73
2022/05/04 14:44:18;;;;;;;;;8.00;7.00;;;;;;;;4993213;28;45390;-72
2022/05/04 14:46:44;;;;;;;;;6.00;6.00;;;;;;;;4993584;28;46305;-72
2022/05/04 14:49:10;;;;;;;;;6.50;6.50;;;;;;;;4994831;28;45302;-73
2022/05/04 14:51:37;;;;;;;;;5.75;5.50;;;;;;;;4992402;28;45492;-72
2022/05/04 14:54:02;;;;;;;;;7.75;7.25;;;;;;;;4991951;28;45523;-72
2022/05/04 14:56:28;;;;;;;;;8.75;7.75;;;;;;;;4993556;28;45572;-72
2022/05/04 14:58:53;;;;;;;;;7.50;7.50;;;;;;;;4993508;28;45393;-72
2022/05/04 15:01:18;;;;;;;;;6.75;6.75;;;;;;;;4998079;28;45421;-73
2022/05/04 15:06:27;;;;;;;;;5.50;5.50;;;;;;;;4988437;28;45657;-72
2022/05/04 15:08:53;;;;;;;;;6.75;6.00;;;;;;;;4988478;28;45503;-72
2022/05/04 15:11:18;;;;;;;;;8.25;4.25;;;;;;;;4985259;28;45503;-73
2022/05/04 15:13:43;;;;;;;;;5.75;5.75;;;;;;;;4997146;28;45570;-73
2022/05/04 15:16:08;;;;;;;;;5.50;5.50;;;;;;;;4983484;28;46405;-73